sensor_id;sensor_type;location;lat;lon;timestamp;pressure;altitude;pressure_sealevel;temperature;humidity
67545;BME280;54380;47.770;11.150;2024-02-28T00:02:03;94594.81;;;6.00;58.87
67545;BME280;54380;47.770;11.150;2024-02-28T00:04:30;94595.63;;;6.01;58.78
67545;BME280;54380;47.770;11.150;2024-02-28T00:06:57;94594.47;;;5.97;58.64
67545;BME280;54380;47.770;11.150;2024-02-28T00:09:24;94598.19;;;5.89;58.64
67545;BME280;54380;47.770;11.150;2024-02-28T00:11:52;94594.66;;;5.83;59.45
67545;BME280;54380;47.770;11.150;2024-02-28T00:14:19;94603.66;;;5.76;59.35
67545;BME280;54380;47.770;11.150;2024-02-28T00:16:46;94603.78;;;5.69;59.23
67545;BME280;54380;47.770;11.150;2024-02-28T00:19:14;94604.00;;;5.67;59.62
67545;BME280;54380;47.770;11.150;2024-02-28T00:21:41;94610.59;;;5.70;59.59
67545;BME280;54380;47.770;11.150;2024-02-28T00:24:09;94617.22;;;5.72;59.78
67545;BME280;54380;47.770;11.150;2024-02-28T00:26:40;94619.63;;;5.74;59.96
67545;BME280;54380;47.770;11.150;2024-02-28T00:29:08;94615.16;;;5.75;59.90
67545;BME280;54380;47.770;11.150;2024-02-28T00:31:35;94621.78;;;5.77;59.99
67545;BME280;54380;47.770;11.150;2024-02-28T00:34:02;94629.97;;;5.81;59.73
67545;BME280;54380;47.770;11.150;2024-02-28T00:36:28;94632.50;;;5.87;60.11
67545;BME280;54380;47.770;11.150;2024-02-28T00:39:10;94631.00;;;5.91;59.61
67545;BME280;54380;47.770;11.150;2024-02-28T00:41:36;94640.47;;;5.92;59.67
67545;BME280;54380;47.770;11.150;2024-02-28T00:44:03;94643.88;;;5.93;60.00
67545;BME280;54380;47.770;11.150;2024-02-28T00:46:31;94647.50;;;5.92;59.52
67545;BME280;54380;47.770;11.150;2024-02-28T00:48:58;94653.16;;;5.96;59.60
67545;BME280;54380;47.770;11.150;2024-02-28T00:51:25;94667.72;;;6.03;59.65
67545;BME280;54380;47.770;11.150;2024-02-28T00:53:51;94670.47;;;6.08;59.55
67545;BME280;54380;47.770;11.150;2024-02-28T00:56:18;94672.06;;;6.09;59.47
67545;BME280;54380;47.770;11.150;2024-02-28T00:58:45;94669.31;;;6.16;59.45
67545;BME280;54380;47.770;11.150;2024-02-28T01:01:12;94671.84;;;6.23;59.38
67545;BME280;54380;47.770;11.150;2024-02-28T01:03:40;94677.66;;;6.25;59.36
67545;BME280;54380;47.770;11.150;2024-02-28T01:06:07;94682.66;;;6.26;59.18
67545;BME280;54380;47.770;11.150;2024-02-28T01:08:33;94688.94;;;6.25;59.61
67545;BME280;54380;47.770;11.150;2024-02-28T01:11:00;94681.28;;;6.24;59.43
67545;BME280;54380;47.770;11.150;2024-02-28T01:13:27;94683.69;;;6.25;59.52
67545;BME280;54380;47.770;11.150;2024-02-28T01:15:54;94678.44;;;6.25;59.68
67545;BME280;54380;47.770;11.150;2024-02-28T01:18:20;94678.91;;;6.22;59.84
67545;BME280;54380;47.770;11.150;2024-02-28T01:20:49;94678.53;;;6.19;60.04
67545;BME280;54380;47.770;11.150;2024-02-28T01:23:17;94674.56;;;6.16;60.24
67545;BME280;54380;47.770;11.150;2024-02-28T01:25:44;94674.00;;;6.14;60.22
67545;BME280;54380;47.770;11.150;2024-02-28T01:28:10;94675.84;;;6.13;60.38
67545;BME280;54380;47.770;11.150;2024-02-28T01:30:37;94680.81;;;6.15;60.76
67545;BME280;54380;47.770;11.150;2024-02-28T01:33:04;94684.69;;;6.12;61.08
67545;BME280;54380;47.770;11.150;2024-02-28T01:35:31;94680.72;;;6.10;60.70
67545;BME280;54380;47.770;11.150;2024-02-28T01:37:59;94679.91;;;6.09;61.00
67545;BME280;54380;47.770;11.150;2024-02-28T01:40:26;94679.69;;;6.11;61.07
67545;BME280;54380;47.770;11.150;2024-02-28T01:42:52;94676.03;;;6.12;60.56
67545;BME280;54380;47.770;11.150;2024-02-28T01:45:19;94668.66;;;6.09;60.59
67545;BME280;54380;47.770;11.150;2024-02-28T01:47:46;94670.34;;;6.15;61.00
67545;BME280;54380;47.770;11.150;2024-02-28T01:50:13;94664.66;;;6.18;60.38
67545;BME280;54380;47.770;11.150;2024-02-28T01:52:40;94663.28;;;6.27;60.36
67545;BME280;54380;47.770;11.150;2024-02-28T01:55:09;94660.31;;;6.35;60.09
67545;BME280;54380;47.770;11.150;2024-02-28T01:57:36;94663.06;;;6.41;60.00
67545;BME280;54380;47.770;11.150;2024-02-28T02:00:05;94664.63;;;6.42;60.12
67545;BME280;54380;47.770;11.150;2024-02-28T02:02:32;94659.50;;;6.47;59.85
67545;BME280;54380;47.770;11.150;2024-02-28T02:04:59;94666.69;;;6.51;59.98
67545;BME280;54380;47.770;11.150;2024-02-28T02:07:26;94670.69;;;6.54;60.13
67545;BME280;54380;47.770;11.150;2024-02-28T02:09:54;94662.34;;;6.57;60.07
67545;BME280;54380;47.770;11.150;2024-02-28T02:12:22;94665.88;;;6.63;59.51
67545;BME280;54380;47.770;11.150;2024-02-28T02:14:48;94667.25;;;6.65;59.66
67545;BME280;54380;47.770;11.150;2024-02-28T02:17:15;94669.88;;;6.65;59.71
67545;BME280;54380;47.770;11.150;2024-02-28T02:19:42;94668.84;;;6.66;60.00
67545;BME280;54380;47.770;11.150;2024-02-28T02:22:10;94675.69;;;6.67;59.59
67545;BME280;54380;47.770;11.150;2024-02-28T02:24:41;94671.69;;;6.65;59.74
67545;BME280;54380;47.770;11.150;2024-02-28T02:27:07;94679.00;;;6.63;59.93
67545;BME280;54380;47.770;11.150;2024-02-28T02:29:34;94668.50;;;6.63;59.91
67545;BME280;54380;47.770;11.150;2024-02-28T02:32:01;94669.53;;;6.62;60.02
67545;BME280;54380;47.770;11.150;2024-02-28T02:34:28;94667.72;;;6.62;59.65
67545;BME280;54380;47.770;11.150;2024-02-28T02:36:54;94672.50;;;6.65;59.88
67545;BME280;54380;47.770;11.150;2024-02-28T02:39:21;94670.19;;;6.69;60.14
67545;BME280;54380;47.770;11.150;2024-02-28T02:41:50;94678.78;;;6.64;60.58
67545;BME280;54380;47.770;11.150;2024-02-28T02:44:17;94677.03;;;6.58;60.50
67545;BME280;54380;47.770;11.150;2024-02-28T02:46:43;94668.06;;;6.54;60.37
67545;BME280;54380;47.770;11.150;2024-02-28T02:49:10;94677.28;;;6.56;60.27
67545;BME280;54380;47.770;11.150;2024-02-28T02:51:37;94682.06;;;6.59;60.13
67545;BME280;54380;47.770;11.150;2024-02-28T02:54:04;94692.09;;;6.63;60.30
67545;BME280;54380;47.770;11.150;2024-02-28T02:56:31;94682.66;;;6.62;59.97
67545;BME280;54380;47.770;11.150;2024-02-28T02:58:59;94681.28;;;6.59;59.98
67545;BME280;54380;47.770;11.150;2024-02-28T03:01:26;94679.56;;;6.65;60.47
67545;BME280;54380;47.770;11.150;2024-02-28T03:03:52;94693.78;;;6.69;59.91
67545;BME280;54380;47.770;11.150;2024-02-28T03:06:19;94687.53;;;6.70;60.34
67545;BME280;54380;47.770;11.150;2024-02-28T03:08:46;94688.56;;;6.69;60.27
67545;BME280;54380;47.770;11.150;2024-02-28T03:11:13;94684.91;;;6.70;60.02
67545;BME280;54380;47.770;11.150;2024-02-28T03:13:40;94696.53;;;6.74;59.78
67545;BME280;54380;47.770;11.150;2024-02-28T03:16:08;94697.91;;;6.76;59.99
67545;BME280;54380;47.770;11.150;2024-02-28T03:18:35;94700.53;;;6.76;59.80
67545;BME280;54380;47.770;11.150;2024-02-28T03:21:02;94698.94;;;6.75;59.91
67545;BME280;54380;47.770;11.150;2024-02-28T03:23:28;94700.88;;;6.80;59.82
67545;BME280;54380;47.770;11.150;2024-02-28T03:25:55;94700.63;;;6.81;59.90
67545;BME280;54380;47.770;11.150;2024-02-28T03:28:22;94700.63;;;6.81;59.74
67545;BME280;54380;47.770;11.150;2024-02-28T03:30:49;94704.28;;;6.80;60.04
67545;BME280;54380;47.770;11.150;2024-02-28T03:33:17;94705.34;;;6.79;60.02
67545;BME280;54380;47.770;11.150;2024-02-28T03:35:44;94712.38;;;6.79;59.75
67545;BME280;54380;47.770;11.150;2024-02-28T03:38:10;94715.56;;;6.81;59.79
67545;BME280;54380;47.770;11.150;2024-02-28T03:40:38;94717.72;;;6.84;60.10
67545;BME280;54380;47.770;11.150;2024-02-28T03:43:04;94715.69;;;6.86;59.87
67545;BME280;54380;47.770;11.150;2024-02-28T03:45:36;94716.47;;;6.87;59.90
67545;BME280;54380;47.770;11.150;2024-02-28T03:48:03;94721.19;;;6.85;59.88
67545;BME280;54380;47.770;11.150;2024-02-28T03:50:32;94726.06;;;6.81;60.36
67545;BME280;54380;47.770;11.150;2024-02-28T03:52:58;94724.94;;;6.77;60.57
67545;BME280;54380;47.770;11.150;2024-02-28T03:55:25;94727.22;;;6.73;60.37
67545;BME280;54380;47.770;11.150;2024-02-28T03:57:52;94733.72;;;6.71;60.30
67545;BME280;54380;47.770;11.150;2024-02-28T04:00:19;94723.69;;;6.68;60.84
67545;BME280;54380;47.770;11.150;2024-02-28T04:02:46;94730.97;;;6.66;60.61
67545;BME280;54380;47.770;11.150;2024-02-28T04:05:13;94743.09;;;6.67;60.75
67545;BME280;54380;47.770;11.150;2024-02-28T04:07:41;94741.47;;;6.66;60.48
67545;BME280;54380;47.770;11.150;2024-02-28T04:10:08;94743.31;;;6.65;60.49
67545;BME280;54380;47.770;11.150;2024-02-28T04:12:37;94744.91;;;6.66;60.63
67545;BME280;54380;47.770;11.150;2024-02-28T04:15:04;94750.38;;;6.65;60.46
67545;BME280;54380;47.770;11.150;2024-02-28T04:17:31;94757.22;;;6.66;60.67
67545;BME280;54380;47.770;11.150;2024-02-28T04:19:58;94757.00;;;6.67;60.54
67545;BME280;54380;47.770;11.150;2024-02-28T04:22:25;94751.75;;;6.67;60.65
67545;BME280;54380;47.770;11.150;2024-02-28T04:24:53;94755.94;;;6.68;60.77
67545;BME280;54380;47.770;11.150;2024-02-28T04:27:20;94766.56;;;6.73;60.53
67545;BME280;54380;47.770;11.150;2024-02-28T04:29:47;94762.47;;;6.77;60.33
67545;BME280;54380;47.770;11.150;2024-02-28T04:32:13;94753.34;;;6.80;59.89
67545;BME280;54380;47.770;11.150;2024-02-28T04:34:40;94767.81;;;6.82;60.28
67545;BME280;54380;47.770;11.150;2024-02-28T04:37:07;94770.00;;;6.86;60.01
67545;BME280;54380;47.770;11.150;2024-02-28T04:39:34;94774.44;;;6.85;59.96
67545;BME280;54380;47.770;11.150;2024-02-28T04:42:02;94776.03;;;6.86;60.19
67545;BME280;54380;47.770;11.150;2024-02-28T04:44:29;94780.47;;;6.86;60.37
67545;BME280;54380;47.770;11.150;2024-02-28T04:46:56;94778.31;;;6.82;60.30
67545;BME280;54380;47.770;11.150;2024-02-28T04:49:22;94787.19;;;6.81;60.33
67545;BME280;54380;47.770;11.150;2024-02-28T04:51:49;94791.44;;;6.82;60.25
67545;BME280;54380;47.770;11.150;2024-02-28T04:54:16;94796.91;;;6.81;60.10
67545;BME280;54380;47.770;11.150;2024-02-28T04:56:43;94794.28;;;6.81;60.13
67545;BME280;54380;47.770;11.150;2024-02-28T04:59:12;94798.53;;;6.82;60.10
67545;BME280;54380;47.770;11.150;2024-02-28T05:01:39;94802.94;;;6.81;60.18
67545;BME280;54380;47.770;11.150;2024-02-28T05:04:09;94803.97;;;6.80;60.04
67545;BME280;54380;47.770;11.150;2024-02-28T05:06:36;94798.72;;;6.80;60.19
67545;BME280;54380;47.770;11.150;2024-02-28T05:09:06;94811.63;;;6.82;60.28
67545;BME280;54380;47.770;11.150;2024-02-28T05:11:33;94813.44;;;6.81;60.43
67545;BME280;54380;47.770;11.150;2024-02-28T05:14:00;94807.41;;;6.81;60.68
67545;BME280;54380;47.770;11.150;2024-02-28T05:16:28;94813.69;;;6.80;60.29
67545;BME280;54380;47.770;11.150;2024-02-28T05:18:55;94818.69;;;6.81;60.75
67545;BME280;54380;47.770;11.150;2024-02-28T05:21:22;94821.31;;;6.81;60.45
67545;BME280;54380;47.770;11.150;2024-02-28T05:23:48;94823.94;;;6.81;60.26
67545;BME280;54380;47.770;11.150;2024-02-28T05:26:15;94826.13;;;6.85;60.79
67545;BME280;54380;47.770;11.150;2024-02-28T05:28:42;94832.16;;;6.85;60.66
67545;BME280;54380;47.770;11.150;2024-02-28T05:31:21;94825.31;;;6.84;60.73
67545;BME280;54380;47.770;11.150;2024-02-28T05:33:50;94835.25;;;6.82;60.80
67545;BME280;54380;47.770;11.150;2024-02-28T05:36:17;94833.06;;;6.79;60.85
67545;BME280;54380;47.770;11.150;2024-02-28T05:38:45;94835.13;;;6.77;61.02
67545;BME280;54380;47.770;11.150;2024-02-28T05:41:11;94837.16;;;6.75;60.85
67545;BME280;54380;47.770;11.150;2024-02-28T05:43:38;94843.66;;;6.72;61.46
67545;BME280;54380;47.770;11.150;2024-02-28T05:46:05;94838.41;;;6.72;61.19
67545;BME280;54380;47.770;11.150;2024-02-28T05:48:32;94846.88;;;6.74;61.24
67545;BME280;54380;47.770;11.150;2024-02-28T05:51:00;94853.25;;;6.78;60.96
67545;BME280;54380;47.770;11.150;2024-02-28T05:53:27;94861.47;;;6.82;61.19
67545;BME280;54380;47.770;11.150;2024-02-28T05:55:54;94857.38;;;6.86;61.03
67545;BME280;54380;47.770;11.150;2024-02-28T05:58:23;94868.44;;;6.88;60.77
67545;BME280;54380;47.770;11.150;2024-02-28T06:00:51;94867.66;;;6.88;60.78
67545;BME280;54380;47.770;11.150;2024-02-28T06:03:18;94871.63;;;6.90;61.16
67545;BME280;54380;47.770;11.150;2024-02-28T06:05:45;94877.22;;;6.94;60.79
67545;BME280;54380;47.770;11.150;2024-02-28T06:08:14;94878.38;;;6.98;61.00
67545;BME280;54380;47.770;11.150;2024-02-28T06:10:41;94876.09;;;7.01;60.95
67545;BME280;54380;47.770;11.150;2024-02-28T06:13:13;94878.03;;;7.06;60.94
67545;BME280;54380;47.770;11.150;2024-02-28T06:15:40;94880.41;;;7.08;60.37
67545;BME280;54380;47.770;11.150;2024-02-28T06:18:07;94891.28;;;7.11;60.62
67545;BME280;54380;47.770;11.150;2024-02-28T06:20:34;94893.44;;;7.14;60.56
67545;BME280;54380;47.770;11.150;2024-02-28T06:23:00;94892.97;;;7.17;60.70
67545;BME280;54380;47.770;11.150;2024-02-28T06:25:40;94899.81;;;7.18;60.43
67545;BME280;54380;47.770;11.150;2024-02-28T06:28:07;94902.44;;;7.18;60.31
67545;BME280;54380;47.770;11.150;2024-02-28T06:30:34;94916.16;;;7.20;60.17
67545;BME280;54380;47.770;11.150;2024-02-28T06:33:01;94922.78;;;7.23;60.14
67545;BME280;54380;47.770;11.150;2024-02-28T06:35:28;94922.56;;;7.24;60.42
67545;BME280;54380;47.770;11.150;2024-02-28T06:37:54;94925.72;;;7.26;60.38
67545;BME280;54380;47.770;11.150;2024-02-28T06:40:21;94934.75;;;7.31;60.10
67545;BME280;54380;47.770;11.150;2024-02-28T06:42:49;94935.34;;;7.33;59.86
67545;BME280;54380;47.770;11.150;2024-02-28T06:45:16;94929.28;;;7.32;60.15
67545;BME280;54380;47.770;11.150;2024-02-28T06:47:44;94928.47;;;7.32;60.25
67545;BME280;54380;47.770;11.150;2024-02-28T06:50:11;94932.72;;;7.33;60.00
67545;BME280;54380;47.770;11.150;2024-02-28T06:52:38;94937.72;;;7.34;60.03
67545;BME280;54380;47.770;11.150;2024-02-28T06:55:06;94934.09;;;7.35;59.87
67545;BME280;54380;47.770;11.150;2024-02-28T06:57:36;94933.03;;;7.36;60.05
67545;BME280;54380;47.770;11.150;2024-02-28T07:00:07;94940.72;;;7.38;60.04
67545;BME280;54380;47.770;11.150;2024-02-28T07:02:45;94944.13;;;7.38;60.10
67545;BME280;54380;47.770;11.150;2024-02-28T07:05:12;94948.13;;;7.41;60.13
67545;BME280;54380;47.770;11.150;2024-02-28T07:07:39;94953.94;;;7.43;60.61
67545;BME280;54380;47.770;11.150;2024-02-28T07:10:06;94959.75;;;7.45;59.96
67545;BME280;54380;47.770;11.150;2024-02-28T07:12:33;94963.19;;;7.45;60.11
67545;BME280;54380;47.770;11.150;2024-02-28T07:15:00;94964.00;;;7.46;59.93
67545;BME280;54380;47.770;11.150;2024-02-28T07:17:28;94956.13;;;7.46;59.96
67545;BME280;54380;47.770;11.150;2024-02-28T07:19:55;94960.34;;;7.47;59.98
67545;BME280;54380;47.770;11.150;2024-02-28T07:22:21;94964.78;;;7.46;60.24
67545;BME280;54380;47.770;11.150;2024-02-28T07:24:48;94962.97;;;7.47;60.31
67545;BME280;54380;47.770;11.150;2024-02-28T07:27:15;94969.25;;;7.46;60.20
67545;BME280;54380;47.770;11.150;2024-02-28T07:29:43;94969.25;;;7.46;60.18
67545;BME280;54380;47.770;11.150;2024-02-28T07:32:10;94975.09;;;7.48;59.96
67545;BME280;54380;47.770;11.150;2024-02-28T07:34:38;94979.28;;;7.49;59.94
67545;BME280;54380;47.770;11.150;2024-02-28T07:37:06;94980.09;;;7.50;60.10
67545;BME280;54380;47.770;11.150;2024-02-28T07:39:32;94972.22;;;7.50;60.01
67545;BME280;54380;47.770;11.150;2024-02-28T07:41:59;94974.63;;;7.51;60.03
67545;BME280;54380;47.770;11.150;2024-02-28T07:44:26;94974.38;;;7.53;60.19
67545;BME280;54380;47.770;11.150;2024-02-28T07:46:57;94971.75;;;7.53;59.99
67545;BME280;54380;47.770;11.150;2024-02-28T07:49:24;94980.44;;;7.53;60.12
67545;BME280;54380;47.770;11.150;2024-02-28T07:51:55;94977.59;;;7.55;60.02
67545;BME280;54380;47.770;11.150;2024-02-28T07:54:22;94980.00;;;7.56;60.32
67545;BME280;54380;47.770;11.150;2024-02-28T07:56:49;94975.53;;;7.57;59.57
67545;BME280;54380;47.770;11.150;2024-02-28T07:59:16;94984.44;;;7.56;60.24
67545;BME280;54380;47.770;11.150;2024-02-28T08:01:43;94980.78;;;7.57;60.02
67545;BME280;54380;47.770;11.150;2024-02-28T08:04:10;94981.13;;;7.60;60.49
67545;BME280;54380;47.770;11.150;2024-02-28T08:06:39;94981.69;;;7.62;60.12
67545;BME280;54380;47.770;11.150;2024-02-28T08:09:07;94988.53;;;7.63;60.22
67545;BME280;54380;47.770;11.150;2024-02-28T08:11:39;94992.53;;;7.66;60.37
67545;BME280;54380;47.770;11.150;2024-02-28T08:14:05;94986.03;;;7.68;59.62
67545;BME280;54380;47.770;11.150;2024-02-28T08:16:32;94988.66;;;7.68;60.02
67545;BME280;54380;47.770;11.150;2024-02-28T08:18:59;94993.69;;;7.70;60.02
67545;BME280;54380;47.770;11.150;2024-02-28T08:21:26;94990.03;;;7.71;60.19
67545;BME280;54380;47.770;11.150;2024-02-28T08:23:53;94995.06;;;7.73;59.84
67545;BME280;54380;47.770;11.150;2024-02-28T08:26:23;94999.28;;;7.74;59.99
67545;BME280;54380;47.770;11.150;2024-02-28T08:28:49;94997.22;;;7.76;60.14
67545;BME280;54380;47.770;11.150;2024-02-28T08:31:16;94995.38;;;7.76;60.31
67545;BME280;54380;47.770;11.150;2024-02-28T08:33:43;94995.97;;;7.78;59.75
67545;BME280;54380;47.770;11.150;2024-02-28T08:36:10;95001.78;;;7.80;60.18
67545;BME280;54380;47.770;11.150;2024-02-28T08:38:37;94998.94;;;7.82;60.57
67545;BME280;54380;47.770;11.150;2024-02-28T08:41:05;95001.91;;;7.85;60.43
67545;BME280;54380;47.770;11.150;2024-02-28T08:43:37;95010.59;;;7.86;60.25
67545;BME280;54380;47.770;11.150;2024-02-28T08:46:04;95003.75;;;7.85;60.41
67545;BME280;54380;47.770;11.150;2024-02-28T08:48:31;95008.44;;;7.83;60.68
67545;BME280;54380;47.770;11.150;2024-02-28T08:50:58;95012.06;;;7.82;61.21
67545;BME280;54380;47.770;11.150;2024-02-28T08:53:25;95016.31;;;7.83;61.03
67545;BME280;54380;47.770;11.150;2024-02-28T08:55:52;95020.97;;;7.81;61.01
67545;BME280;54380;47.770;11.150;2024-02-28T08:58:19;95024.66;;;7.80;61.25
67545;BME280;54380;47.770;11.150;2024-02-28T09:00:47;95029.09;;;7.79;60.99
67545;BME280;54380;47.770;11.150;2024-02-28T09:03:14;95022.81;;;7.80;61.11
67545;BME280;54380;47.770;11.150;2024-02-28T09:05:41;95022.34;;;7.83;61.03
67545;BME280;54380;47.770;11.150;2024-02-28T09:08:07;95024.31;;;7.88;60.85
67545;BME280;54380;47.770;11.150;2024-02-28T09:10:38;95037.78;;;7.91;60.72
67545;BME280;54380;47.770;11.150;2024-02-28T09:13:05;95034.69;;;7.95;61.00
67545;BME280;54380;47.770;11.150;2024-02-28T09:15:34;95035.03;;;7.98;60.77
67545;BME280;54380;47.770;11.150;2024-02-28T09:18:03;95040.63;;;8.02;60.48
67545;BME280;54380;47.770;11.150;2024-02-28T09:20:30;95038.00;;;8.02;60.75
67545;BME280;54380;47.770;11.150;2024-02-28T09:22:57;95039.59;;;8.03;61.16
67545;BME280;54380;47.770;11.150;2024-02-28T09:25:23;95046.47;;;8.04;61.11
67545;BME280;54380;47.770;11.150;2024-02-28T09:27:54;95044.06;;;8.02;61.37
67545;BME280;54380;47.770;11.150;2024-02-28T09:30:21;95042.78;;;8.05;61.12
67545;BME280;54380;47.770;11.150;2024-02-28T09:32:50;95043.84;;;8.04;61.12
67545;BME280;54380;47.770;11.150;2024-02-28T09:35:18;95047.25;;;8.04;60.97
67545;BME280;54380;47.770;11.150;2024-02-28T09:37:44;95049.88;;;8.04;60.67
67545;BME280;54380;47.770;11.150;2024-02-28T09:40:12;95054.34;;;8.04;61.06
67545;BME280;54380;47.770;11.150;2024-02-28T09:42:39;95050.94;;;8.03;60.96
67545;BME280;54380;47.770;11.150;2024-02-28T09:45:08;95059.38;;;8.05;61.44
67545;BME280;54380;47.770;11.150;2024-02-28T09:47:36;95059.38;;;8.05;61.22
67545;BME280;54380;47.770;11.150;2024-02-28T09:50:04;95055.59;;;8.01;61.05
67545;BME280;54380;47.770;11.150;2024-02-28T09:52:32;95055.38;;;8.03;61.43
67545;BME280;54380;47.770;11.150;2024-02-28T09:54:59;95055.94;;;8.05;61.20
67545;BME280;54380;47.770;11.150;2024-02-28T09:57:26;95055.25;;;8.09;61.85
67545;BME280;54380;47.770;11.150;2024-02-28T09:59:56;95056.84;;;8.10;61.57
67545;BME280;54380;47.770;11.150;2024-02-28T10:02:25;95054.56;;;8.14;61.10
67545;BME280;54380;47.770;11.150;2024-02-28T10:04:53;95056.50;;;8.19;61.25
67545;BME280;54380;47.770;11.150;2024-02-28T10:07:20;95055.47;;;8.20;61.12
67545;BME280;54380;47.770;11.150;2024-02-28T10:09:49;95056.28;;;8.20;61.74
67545;BME280;54380;47.770;11.150;2024-02-28T10:12:16;95044.50;;;8.23;61.37
67545;BME280;54380;47.770;11.150;2024-02-28T10:14:43;95055.34;;;8.26;61.91
67545;BME280;54380;47.770;11.150;2024-02-28T10:17:10;95048.81;;;8.29;61.65
67545;BME280;54380;47.770;11.150;2024-02-28T10:19:37;95057.06;;;8.32;61.35
67545;BME280;54380;47.770;11.150;2024-02-28T10:22:06;95058.19;;;8.36;61.20
67545;BME280;54380;47.770;11.150;2024-02-28T10:24:33;95056.50;;;8.42;61.57
67545;BME280;54380;47.770;11.150;2024-02-28T10:27:02;95065.06;;;8.49;61.47
67545;BME280;54380;47.770;11.150;2024-02-28T10:29:29;95060.94;;;8.53;61.21
67545;BME280;54380;47.770;11.150;2024-02-28T10:31:56;95057.84;;;8.56;61.03
67545;BME280;54380;47.770;11.150;2024-02-28T10:34:23;95055.53;;;8.60;61.25
67545;BME280;54380;47.770;11.150;2024-02-28T10:36:49;95055.06;;;8.63;61.42
67545;BME280;54380;47.770;11.150;2024-02-28T10:39:17;95059.63;;;8.68;60.85
67545;BME280;54380;47.770;11.150;2024-02-28T10:41:46;95062.06;;;8.69;61.40
67545;BME280;54380;47.770;11.150;2024-02-28T10:44:16;95063.63;;;8.70;61.23
67545;BME280;54380;47.770;11.150;2024-02-28T10:46:44;95063.97;;;8.74;61.41
67545;BME280;54380;47.770;11.150;2024-02-28T10:49:11;95053.00;;;8.77;61.14
67545;BME280;54380;47.770;11.150;2024-02-28T10:51:39;95058.00;;;8.78;61.20
67545;BME280;54380;47.770;11.150;2024-02-28T10:54:08;95064.88;;;8.79;60.98
67545;BME280;54380;47.770;11.150;2024-02-28T10:56:40;95063.63;;;8.82;60.76
67545;BME280;54380;47.770;11.150;2024-02-28T10:59:08;95068.63;;;8.84;60.84
67545;BME280;54380;47.770;11.150;2024-02-28T11:01:40;95071.84;;;8.86;60.96
67545;BME280;54380;47.770;11.150;2024-02-28T11:04:12;95067.13;;;8.88;60.67
67545;BME280;54380;47.770;11.150;2024-02-28T11:06:48;95071.94;;;8.91;61.27
67545;BME280;54380;47.770;11.150;2024-02-28T11:09:19;95066.66;;;8.91;60.77
67545;BME280;54380;47.770;11.150;2024-02-28T11:11:49;95069.41;;;8.96;61.15
67545;BME280;54380;47.770;11.150;2024-02-28T11:14:17;95064.91;;;8.96;61.00
67545;BME280;54380;47.770;11.150;2024-02-28T11:16:45;95058.88;;;8.96;60.62
67545;BME280;54380;47.770;11.150;2024-02-28T11:19:19;95067.25;;;8.93;60.15
67545;BME280;54380;47.770;11.150;2024-02-28T11:21:52;95068.25;;;8.92;60.86
67545;BME280;54380;47.770;11.150;2024-02-28T11:24:22;95066.41;;;8.92;60.50
67545;BME280;54380;47.770;11.150;2024-02-28T11:26:50;95064.34;;;8.94;61.07
67545;BME280;54380;47.770;11.150;2024-02-28T11:29:22;95070.50;;;9.00;60.62
67545;BME280;54380;47.770;11.150;2024-02-28T11:31:51;95073.97;;;9.00;60.32
67545;BME280;54380;47.770;11.150;2024-02-28T11:34:18;95072.69;;;9.03;60.19
67545;BME280;54380;47.770;11.150;2024-02-28T11:36:47;95076.91;;;9.04;60.30
67545;BME280;54380;47.770;11.150;2024-02-28T11:39:14;95068.75;;;9.06;60.18
67545;BME280;54380;47.770;11.150;2024-02-28T11:41:41;95075.16;;;9.10;60.56
67545;BME280;54380;47.770;11.150;2024-02-28T11:44:09;95071.28;;;9.12;60.39
67545;BME280;54380;47.770;11.150;2024-02-28T11:46:36;95067.03;;;9.11;60.04
67545;BME280;54380;47.770;11.150;2024-02-28T11:49:04;95071.28;;;9.12;60.54
67545;BME280;54380;47.770;11.150;2024-02-28T11:51:32;95067.84;;;9.12;60.30
67545;BME280;54380;47.770;11.150;2024-02-28T11:54:01;95071.03;;;9.14;60.47
67545;BME280;54380;47.770;11.150;2024-02-28T11:56:27;95066.00;;;9.12;60.42
67545;BME280;54380;47.770;11.150;2024-02-28T11:58:54;95064.16;;;9.13;59.77
67545;BME280;54380;47.770;11.150;2024-02-28T12:01:33;95065.78;;;9.14;60.03
67545;BME280;54380;47.770;11.150;2024-02-28T12:04:03;95055.25;;;9.14;60.01
67545;BME280;54380;47.770;11.150;2024-02-28T12:06:32;95063.47;;;9.17;60.74
67545;BME280;54380;47.770;11.150;2024-02-28T12:08:59;95056.91;;;9.20;59.86
67545;BME280;54380;47.770;11.150;2024-02-28T12:11:26;95065.13;;;9.23;60.30
67545;BME280;54380;47.770;11.150;2024-02-28T12:13:55;95061.72;;;9.23;59.90
67545;BME280;54380;47.770;11.150;2024-02-28T12:16:24;95057.72;;;9.20;59.99
67545;BME280;54380;47.770;11.150;2024-02-28T12:18:51;95060.66;;;9.24;60.20
67545;BME280;54380;47.770;11.150;2024-02-28T12:21:19;95065.47;;;9.27;59.86
67545;BME280;54380;47.770;11.150;2024-02-28T12:23:46;95071.28;;;9.29;60.24
67545;BME280;54380;47.770;11.150;2024-02-28T12:26:17;95067.28;;;9.27;59.96
67545;BME280;54380;47.770;11.150;2024-02-28T12:28:47;95066.97;;;9.23;59.87
67545;BME280;54380;47.770;11.150;2024-02-28T12:31:14;95069.03;;;9.21;59.43
67545;BME280;54380;47.770;11.150;2024-02-28T12:33:41;95058.97;;;9.18;59.99
67545;BME280;54380;47.770;11.150;2024-02-28T12:36:09;95063.25;;;9.19;60.35
67545;BME280;54380;47.770;11.150;2024-02-28T12:38:37;95066.66;;;9.19;59.69
67545;BME280;54380;47.770;11.150;2024-02-28T12:41:03;95061.41;;;9.19;60.35
67545;BME280;54380;47.770;11.150;2024-02-28T12:43:30;95070.97;;;9.26;60.27
67545;BME280;54380;47.770;11.150;2024-02-28T12:45:58;95067.53;;;9.25;60.50
67545;BME280;54380;47.770;11.150;2024-02-28T12:48:25;95067.78;;;9.23;60.47
67545;BME280;54380;47.770;11.150;2024-02-28T12:50:52;95066.19;;;9.22;60.64
67545;BME280;54380;47.770;11.150;2024-02-28T12:53:19;95064.25;;;9.18;59.61
67545;BME280;54380;47.770;11.150;2024-02-28T12:55:47;95073.19;;;9.17;60.42
67545;BME280;54380;47.770;11.150;2024-02-28T12:58:14;95068.41;;;9.14;59.82
67545;BME280;54380;47.770;11.150;2024-02-28T13:00:40;95069.44;;;9.13;59.62
67545;BME280;54380;47.770;11.150;2024-02-28T13:03:08;95077.00;;;9.09;59.83